Zagreb, Croatia
Current Conditions -  °F | °C
As of 10:00 PM on Friday 31 Oct 2014 (Local Time) from LDZA Reporting Station
Overcast Overcast  
Wind Chill: 50°   Ceiling: 3100
Heat Index: 50°   Visibility: 4mi
Dew Point: 46°   Wind: 2mph
Humidity: 87%   Direction: 230°SW
Pressure: 30.33"   Gusts: NA
Location:  45.8°N, 15.97°E
Report Text: LDZA 312000Z 23002KT 7000 OVC031 10/08 Q1027 NOSIG
Loading
Personal Weather Stations






























Interactive Weather Map
Tropical Storm Tracking
New forecast layout! Learn more

10-Day Weather Forecast

Advertisements
Track Severe Weather on mobile